createdAt,value
2023-04-18T00:00:36.808Z,83.16
2023-04-18T00:03:04.666Z,82.51
2023-04-18T00:05:31.425Z,83.00
2023-04-18T00:07:57.817Z,83.00
2023-04-18T00:10:24.265Z,82.79
2023-04-18T00:12:51.366Z,82.46
2023-04-18T00:15:18.371Z,81.27
2023-04-18T00:17:44.775Z,81.78
2023-04-18T00:20:12.732Z,81.87
2023-04-18T00:22:46.662Z,80.80
2023-04-18T00:25:13.179Z,81.02
2023-04-18T00:27:39.584Z,80.72
2023-04-18T00:30:07.127Z,79.39
2023-04-18T00:32:33.560Z,79.75
2023-04-18T00:34:59.970Z,79.08
2023-04-18T00:37:27.013Z,79.27
2023-04-18T00:39:53.895Z,79.31
2023-04-18T00:42:25.393Z,79.13
2023-04-18T00:44:51.791Z,79.13
2023-04-18T00:47:18.209Z,80.06
2023-04-18T00:49:45.470Z,80.57
2023-04-18T00:52:12.465Z,80.65
2023-04-18T00:54:40.616Z,80.78
2023-04-18T00:57:07.834Z,80.75
2023-04-18T00:59:35.421Z,81.03
2023-04-18T01:02:05.207Z,80.66
2023-04-18T01:04:34.553Z,79.83
2023-04-18T01:07:02.111Z,81.36
2023-04-18T01:09:28.663Z,80.65
2023-04-18T01:11:55.048Z,80.67
2023-04-18T01:14:21.648Z,79.84
2023-04-18T01:16:50.986Z,79.85
2023-04-18T01:19:17.453Z,80.08
2023-04-18T01:21:44.114Z,79.72
2023-04-18T01:24:12.744Z,79.38
2023-04-18T01:26:40.050Z,78.93
2023-04-18T01:29:06.946Z,78.89
2023-04-18T01:31:37.542Z,78.15
2023-04-18T01:34:05.314Z,78.09
2023-04-18T01:36:32.597Z,78.00
2023-04-18T01:38:59.696Z,77.77
2023-04-18T01:41:28.980Z,77.15
2023-04-18T01:43:55.360Z,77.62
2023-04-18T01:46:21.766Z,76.84
2023-04-18T01:48:48.145Z,77.12
2023-04-18T01:51:14.553Z,77.00
2023-04-18T01:53:41.760Z,77.87
2023-04-18T01:56:10.093Z,76.97
2023-04-18T01:58:36.972Z,77.39
2023-04-18T02:01:03.902Z,77.27
2023-04-18T02:03:30.489Z,77.73
2023-04-18T02:05:57.100Z,76.85
2023-04-18T02:08:23.486Z,77.70
2023-04-18T02:10:49.825Z,77.46
2023-04-18T02:13:16.205Z,76.80
2023-04-18T02:15:45.787Z,77.75
2023-04-18T02:18:12.250Z,77.73
2023-04-18T02:20:39.158Z,77.02
2023-04-18T02:23:05.633Z,77.31
2023-04-18T02:25:31.990Z,77.25
2023-04-18T02:27:58.356Z,77.40
2023-04-18T02:30:25.668Z,76.82
2023-04-18T02:32:53.796Z,77.20
2023-04-18T02:35:21.030Z,77.09
2023-04-18T02:37:47.474Z,77.50
2023-04-18T02:40:14.074Z,77.25
2023-04-18T02:42:40.569Z,77.56
2023-04-18T02:45:07.815Z,77.72
2023-04-18T02:47:47.027Z,76.74
2023-04-18T02:50:17.999Z,76.68
2023-04-18T02:52:44.335Z,77.10
2023-04-18T02:55:10.894Z,77.32
2023-04-18T02:57:37.252Z,77.33
2023-04-18T03:00:04.597Z,77.19
2023-04-18T03:02:31.116Z,77.21
2023-04-18T03:04:57.554Z,77.64
2023-04-18T03:07:24.010Z,77.09
2023-04-18T03:09:50.530Z,77.04
2023-04-18T03:12:16.883Z,76.95
2023-04-18T03:14:44.475Z,76.99
2023-04-18T03:17:11.158Z,76.86
2023-04-18T03:19:37.502Z,76.82
2023-04-18T03:22:03.846Z,76.72
2023-04-18T03:24:30.196Z,76.77
2023-04-18T03:26:56.694Z,77.13
2023-04-18T03:29:23.162Z,76.72
2023-04-18T03:31:49.632Z,78.36
2023-04-18T03:34:16.055Z,78.01
2023-04-18T03:36:42.612Z,78.05
2023-04-18T03:39:09.082Z,77.84
2023-04-18T03:41:35.433Z,77.75
2023-04-18T03:44:01.740Z,77.59
2023-04-18T03:46:28.287Z,77.46
2023-04-18T03:48:54.650Z,77.57
2023-04-18T03:51:21.038Z,78.23
2023-04-18T03:53:47.396Z,77.43
2023-04-18T03:56:13.840Z,77.80
2023-04-18T03:58:40.283Z,77.56
2023-04-18T04:01:07.636Z,77.72
2023-04-18T04:03:34.074Z,77.86
2023-04-18T04:06:00.888Z,77.77
2023-04-18T04:08:28.318Z,78.01
2023-04-18T04:10:54.844Z,77.79
2023-04-18T04:13:21.148Z,77.78
2023-04-18T04:15:47.484Z,77.12
2023-04-18T04:18:13.808Z,77.62
2023-04-18T04:20:40.118Z,77.20
2023-04-18T04:23:06.983Z,77.35
2023-04-18T04:25:34.064Z,77.12
2023-04-18T04:28:01.421Z,77.12
2023-04-18T04:30:28.603Z,77.04
2023-04-18T04:32:55.124Z,76.96
2023-04-18T04:35:21.621Z,76.57
2023-04-18T04:37:48.263Z,76.66
2023-04-18T04:40:15.640Z,77.00
2023-04-18T04:42:42.260Z,77.36
2023-04-18T04:45:09.506Z,77.33
2023-04-18T04:47:36.622Z,77.11
2023-04-18T04:50:04.330Z,76.84
2023-04-18T04:52:32.629Z,78.29
2023-04-18T04:54:59.023Z,77.56
2023-04-18T04:57:25.560Z,77.85
2023-04-18T04:59:51.867Z,77.56
2023-04-18T05:02:18.321Z,77.36
2023-04-18T05:04:44.716Z,77.64
2023-04-18T05:07:11.099Z,76.95
2023-04-18T05:09:37.436Z,77.00
2023-04-18T05:12:04.385Z,77.04
2023-04-18T05:14:31.014Z,78.05
2023-04-18T05:16:57.473Z,77.33
2023-04-18T05:19:23.884Z,77.71
2023-04-18T05:21:50.183Z,77.35
2023-04-18T05:24:16.797Z,76.98
2023-04-18T05:26:43.445Z,77.71
2023-04-18T05:29:09.861Z,77.46
2023-04-18T05:31:36.348Z,78.31
2023-04-18T05:34:03.042Z,77.55
2023-04-18T05:36:29.488Z,77.63
2023-04-18T05:38:55.842Z,78.06
2023-04-18T05:41:22.874Z,77.81
2023-04-18T05:43:58.088Z,78.05
2023-04-18T05:46:31.706Z,78.18
2023-04-18T05:48:58.089Z,78.44
2023-04-18T05:51:24.503Z,77.86
2023-04-18T05:53:51.072Z,77.55
2023-04-18T05:56:17.450Z,77.51
2023-04-18T05:58:45.530Z,77.79
2023-04-18T06:01:14.179Z,77.57
2023-04-18T06:03:41.511Z,77.59
2023-04-18T06:06:08.362Z,78.05
2023-04-18T06:08:34.763Z,77.68
2023-04-18T06:11:01.132Z,77.17
2023-04-18T06:13:27.437Z,77.51
2023-04-18T06:15:54.031Z,77.44
2023-04-18T06:18:20.414Z,77.79
2023-04-18T06:20:46.805Z,77.90
2023-04-18T06:23:13.237Z,77.29
2023-04-18T06:25:41.569Z,76.80
2023-04-18T06:28:08.007Z,76.87
2023-04-18T06:30:34.662Z,76.40
2023-04-18T06:33:01.076Z,75.81
2023-04-18T06:35:30.746Z,76.04
2023-04-18T06:37:57.129Z,76.29
2023-04-18T06:40:23.452Z,75.00
2023-04-18T06:42:49.777Z,74.87
2023-04-18T06:45:16.242Z,74.36
2023-04-18T06:47:42.596Z,74.52
2023-04-18T06:50:09.554Z,74.80
2023-04-18T06:52:40.368Z,73.81
2023-04-18T06:55:08.961Z,74.25
2023-04-18T06:57:35.336Z,73.70
2023-04-18T07:00:01.768Z,73.73
2023-04-18T07:02:28.218Z,73.97
2023-04-18T07:04:54.757Z,73.91
2023-04-18T07:07:21.198Z,73.60
2023-04-18T07:09:48.461Z,72.90
2023-04-18T07:12:15.380Z,73.13
2023-04-18T07:14:42.022Z,73.44
2023-04-18T07:17:08.575Z,72.40
2023-04-18T07:19:35.024Z,73.58
2023-04-18T07:22:01.340Z,73.71
2023-04-18T07:24:27.748Z,73.84
2023-04-18T07:26:55.227Z,74.00
2023-04-18T07:29:21.676Z,72.90
2023-04-18T07:31:48.417Z,73.74
2023-04-18T07:34:15.322Z,72.39
2023-04-18T07:36:42.147Z,73.17
2023-04-18T07:39:08.606Z,73.33
2023-04-18T07:41:35.608Z,72.87
2023-04-18T07:44:02.718Z,70.47
2023-04-18T07:46:29.421Z,69.96
2023-04-18T07:48:56.026Z,71.26
2023-04-18T07:51:25.280Z,68.83
2023-04-18T07:53:51.740Z,65.53
2023-04-18T07:56:18.577Z,65.09
2023-04-18T07:58:44.971Z,64.78
2023-04-18T08:01:15.229Z,63.61
2023-04-18T08:03:41.788Z,62.37
2023-04-18T08:06:08.421Z,62.11
2023-04-18T08:08:34.729Z,62.28
2023-04-18T08:11:01.181Z,61.80
2023-04-18T08:13:27.637Z,60.86
2023-04-18T08:15:55.773Z,61.55
2023-04-18T08:18:23.122Z,61.92
2023-04-18T08:20:49.488Z,59.94
2023-04-18T08:23:15.950Z,59.07
2023-04-18T08:25:42.372Z,57.92
2023-04-18T08:28:08.830Z,58.67
2023-04-18T08:30:35.353Z,58.75
2023-04-18T08:33:02.246Z,60.82
2023-04-18T08:35:28.749Z,60.73
2023-04-18T08:37:55.241Z,62.21
2023-04-18T08:40:21.885Z,62.55
2023-04-18T08:42:49.411Z,63.49
2023-04-18T08:45:16.194Z,63.50
2023-04-18T08:47:42.974Z,62.84
2023-04-18T08:50:10.397Z,60.39
2023-04-18T08:52:38.703Z,60.59
2023-04-18T08:55:05.688Z,58.16
2023-04-18T08:57:33.180Z,59.92
2023-04-18T09:00:02.282Z,58.89
2023-04-18T09:02:38.971Z,59.07
2023-04-18T09:05:19.566Z,61.45
2023-04-18T09:07:47.437Z,60.96
2023-04-18T09:10:24.113Z,59.60
2023-04-18T09:12:50.806Z,59.27
2023-04-18T09:15:20.218Z,59.72
2023-04-18T09:17:53.294Z,60.52
2023-04-18T09:20:41.108Z,58.01
2023-04-18T09:23:10.764Z,56.92
2023-04-18T09:25:44.770Z,53.32
2023-04-18T09:28:30.105Z,56.22
2023-04-18T09:31:15.319Z,55.34
2023-04-18T09:33:54.111Z,52.14
2023-04-18T09:36:24.771Z,53.01
2023-04-18T09:38:55.534Z,51.47
2023-04-18T09:41:23.343Z,51.18
2023-04-18T09:43:50.015Z,52.66
2023-04-18T09:46:17.764Z,54.34
2023-04-18T09:48:44.379Z,56.69
2023-04-18T09:51:14.978Z,57.34
2023-04-18T09:53:44.869Z,59.68
2023-04-18T09:56:27.954Z,59.42
2023-04-18T09:59:07.131Z,59.56
2023-04-18T10:01:34.033Z,60.70
2023-04-18T10:04:04.108Z,60.76
2023-04-18T10:06:33.861Z,61.54
2023-04-18T10:09:04.162Z,62.18
2023-04-18T10:11:31.689Z,63.21
2023-04-18T10:14:01.248Z,62.45
2023-04-18T10:16:28.688Z,61.52
2023-04-18T10:18:55.082Z,62.38
2023-04-18T10:21:21.933Z,62.29
2023-04-18T10:23:51.127Z,61.95
2023-04-18T10:26:17.515Z,61.89
2023-04-18T10:28:57.303Z,62.69
2023-04-18T10:31:28.614Z,56.05
2023-04-18T10:36:28.580Z,53.96
2023-04-18T10:39:25.494Z,55.34
2023-04-18T10:41:51.989Z,54.05
2023-04-18T10:44:21.777Z,53.47
2023-04-18T10:46:48.057Z,53.44
2023-04-18T10:49:21.908Z,53.16
2023-04-18T10:51:51.139Z,52.64
2023-04-18T10:54:21.141Z,51.86
2023-04-18T10:56:59.004Z,52.04
2023-04-18T10:59:26.975Z,51.28
2023-04-18T11:01:59.971Z,52.51
2023-04-18T11:04:26.572Z,52.44
2023-04-18T11:06:58.334Z,52.00
2023-04-18T11:09:24.960Z,52.43
2023-04-18T11:12:11.328Z,52.21
2023-04-18T11:14:46.319Z,52.37
2023-04-18T11:17:26.769Z,54.46
2023-04-18T11:20:01.300Z,52.79
2023-04-18T11:22:27.820Z,52.26
2023-04-18T11:24:59.014Z,52.68
2023-04-18T11:27:26.833Z,52.55
2023-04-18T11:29:54.517Z,53.51
2023-04-18T11:32:23.206Z,51.83
2023-04-18T11:34:55.881Z,51.72
2023-04-18T11:37:22.605Z,52.60
2023-04-18T11:39:51.929Z,52.70
2023-04-18T11:42:18.317Z,50.63
2023-04-18T11:44:49.156Z,48.12
2023-04-18T11:47:30.482Z,46.41
2023-04-18T11:50:01.785Z,47.81
2023-04-18T11:52:30.487Z,49.51
2023-04-18T11:55:14.952Z,49.35
2023-04-18T11:57:41.800Z,50.28
2023-04-18T12:00:10.658Z,52.29
2023-04-18T12:02:46.073Z,52.25
2023-04-18T12:05:24.162Z,53.62
2023-04-18T12:07:50.682Z,53.88
2023-04-18T12:10:19.963Z,52.77
2023-04-18T12:12:51.314Z,52.01
2023-04-18T12:15:18.407Z,52.44
2023-04-18T12:17:46.631Z,52.11
2023-04-18T12:20:13.426Z,52.81
2023-04-18T12:22:42.039Z,52.79
2023-04-18T12:25:24.217Z,53.90
2023-04-18T12:27:58.146Z,53.90
2023-04-18T12:30:36.013Z,54.15
2023-04-18T12:33:04.320Z,55.23
2023-04-18T12:35:31.881Z,56.43
2023-04-18T12:38:02.821Z,56.53
2023-04-18T12:40:30.129Z,55.46
2023-04-18T12:42:56.884Z,55.28
2023-04-18T12:45:24.041Z,55.62
2023-04-18T12:47:52.265Z,56.28
2023-04-18T12:50:21.818Z,56.94
2023-04-18T12:52:48.834Z,57.20
2023-04-18T12:55:15.761Z,58.78
2023-04-18T12:57:43.086Z,57.46
2023-04-18T13:00:12.806Z,57.94
2023-04-18T13:02:42.158Z,59.06
2023-04-18T13:05:10.890Z,58.78
2023-04-18T13:07:40.387Z,56.98
2023-04-18T13:10:08.863Z,57.28
2023-04-18T13:12:35.530Z,57.91
2023-04-18T13:15:02.053Z,60.09
2023-04-18T13:17:28.549Z,59.42
2023-04-18T13:19:54.905Z,59.70
2023-04-18T13:22:21.416Z,58.99
2023-04-18T13:24:48.376Z,58.58
2023-04-18T13:27:14.840Z,57.49
2023-04-18T13:29:43.088Z,58.49
2023-04-18T13:32:09.594Z,56.54
2023-04-18T13:34:42.325Z,57.90
2023-04-18T13:37:08.698Z,57.95
2023-04-18T13:39:35.043Z,57.25
2023-04-18T13:42:04.521Z,56.39
2023-04-18T13:44:31.500Z,56.95
2023-04-18T13:46:57.971Z,56.35
2023-04-18T13:49:24.441Z,57.46
2023-04-18T13:51:53.425Z,55.87
2023-04-18T13:54:20.079Z,55.76
2023-04-18T13:56:46.486Z,55.61
2023-04-18T13:59:13.102Z,54.34
2023-04-18T14:01:39.983Z,53.80
2023-04-18T14:04:06.780Z,51.79
2023-04-18T14:06:33.397Z,53.18
2023-04-18T14:08:59.757Z,52.51
2023-04-18T14:11:26.387Z,52.79
2023-04-18T14:13:52.760Z,53.38
2023-04-18T14:16:19.366Z,53.34
2023-04-18T14:18:46.167Z,52.88
2023-04-18T14:21:13.549Z,54.49
2023-04-18T14:23:39.886Z,53.95
2023-04-18T14:26:06.197Z,53.72
2023-04-18T14:28:32.590Z,55.60
2023-04-18T14:31:01.969Z,52.57
2023-04-18T14:33:29.238Z,53.46
2023-04-18T14:35:55.598Z,50.92
2023-04-18T14:38:21.985Z,44.15
2023-04-18T14:40:48.478Z,42.48
2023-04-18T14:43:14.857Z,41.87
2023-04-18T14:45:41.230Z,40.61
2023-04-18T14:48:10.215Z,39.77
2023-04-18T14:50:38.457Z,39.05
2023-04-18T14:53:05.981Z,39.01
2023-04-18T14:55:33.266Z,38.90
2023-04-18T14:58:00.143Z,38.78
2023-04-18T15:00:27.349Z,36.37
2023-04-18T15:02:53.949Z,38.08
2023-04-18T15:05:23.601Z,38.70
2023-04-18T15:07:51.865Z,39.96
2023-04-18T15:10:19.608Z,42.29
2023-04-18T15:12:48.958Z,43.54
2023-04-18T15:15:15.319Z,45.80
2023-04-18T15:17:42.057Z,46.61
2023-04-18T15:20:09.377Z,46.17
2023-04-18T15:22:36.030Z,45.15
2023-04-18T15:25:03.924Z,41.56
2023-04-18T15:27:30.419Z,40.26
2023-04-18T15:29:56.865Z,40.56
2023-04-18T15:32:23.408Z,41.35
2023-04-18T15:34:49.927Z,38.96
2023-04-18T15:37:16.328Z,38.45
2023-04-18T15:39:42.653Z,38.63
2023-04-18T15:42:09.036Z,39.18
2023-04-18T15:44:35.592Z,39.14
2023-04-18T15:47:02.055Z,38.70
2023-04-18T15:49:28.794Z,39.82
2023-04-18T15:51:56.651Z,42.35
2023-04-18T15:54:23.075Z,43.75
2023-04-18T15:56:49.506Z,44.86
2023-04-18T15:59:15.819Z,45.94
2023-04-18T16:01:45.236Z,46.05
2023-04-18T16:04:12.557Z,45.55
2023-04-18T16:06:39.266Z,45.03
2023-04-18T16:09:06.858Z,44.34
2023-04-18T16:11:33.225Z,44.13
2023-04-18T16:13:59.536Z,45.76
2023-04-18T16:16:26.546Z,45.56
2023-04-18T16:18:52.922Z,46.95
2023-04-18T16:21:19.330Z,47.49
2023-04-18T16:23:45.821Z,48.92
2023-04-18T16:26:12.201Z,48.79
2023-04-18T16:28:38.748Z,49.26
2023-04-18T16:31:06.357Z,50.45
2023-04-18T16:33:32.966Z,51.65
2023-04-18T16:36:02.929Z,52.23
2023-04-18T16:38:29.488Z,53.48
2023-04-18T16:40:57.342Z,52.06
2023-04-18T16:43:24.191Z,52.17
2023-04-18T16:45:50.614Z,53.51
2023-04-18T16:48:17.061Z,52.82
2023-04-18T16:50:45.588Z,54.16
2023-04-18T16:53:12.017Z,53.11
2023-04-18T16:55:38.325Z,54.28
2023-04-18T16:58:04.761Z,52.83
2023-04-18T17:00:31.269Z,53.28
2023-04-18T17:02:58.244Z,53.43
2023-04-18T17:05:25.851Z,53.68
2023-04-18T17:07:52.509Z,54.15
2023-04-18T17:10:19.318Z,54.62
2023-04-18T17:12:48.972Z,54.85
2023-04-18T17:15:19.148Z,55.49
2023-04-18T17:17:45.842Z,56.15
2023-04-18T17:20:12.620Z,56.22
2023-04-18T17:22:39.089Z,55.91
2023-04-18T17:25:05.970Z,56.66
2023-04-18T17:27:32.489Z,56.47
2023-04-18T17:29:58.955Z,56.10
2023-04-18T17:32:25.428Z,56.02
2023-04-18T17:34:52.105Z,55.97
2023-04-18T17:37:19.890Z,56.72
2023-04-18T17:39:46.199Z,56.30
2023-04-18T17:42:12.796Z,56.36
2023-04-18T17:44:39.785Z,56.29
2023-04-18T17:47:06.753Z,58.17
2023-04-18T17:49:35.990Z,57.34
2023-04-18T17:52:03.389Z,57.08
2023-04-18T17:54:30.273Z,57.50
2023-04-18T17:56:57.689Z,58.90
2023-04-18T17:59:24.036Z,58.52
2023-04-18T18:01:50.777Z,59.70
2023-04-18T18:04:17.308Z,60.50
2023-04-18T18:06:54.092Z,59.41
2023-04-18T18:09:20.590Z,58.78
2023-04-18T18:11:46.925Z,61.57
2023-04-18T18:14:13.569Z,62.48
2023-04-18T18:16:40.169Z,60.73
2023-04-18T18:19:09.584Z,61.32
2023-04-18T18:21:36.462Z,61.65
2023-04-18T18:24:03.013Z,61.91
2023-04-18T18:26:29.348Z,62.42
2023-04-18T18:28:55.721Z,62.42
2023-04-18T18:31:24.811Z,62.46
2023-04-18T18:33:52.005Z,62.08
2023-04-18T18:36:18.418Z,64.35
2023-04-18T18:38:44.868Z,62.79
2023-04-18T18:41:11.202Z,65.58
2023-04-18T18:43:37.707Z,63.52
2023-04-18T18:46:04.186Z,62.62
2023-04-18T18:48:32.607Z,62.48
2023-04-18T18:50:58.925Z,63.91
2023-04-18T18:53:25.378Z,65.36
2023-04-18T18:55:51.765Z,65.53
2023-04-18T18:58:18.092Z,64.74
2023-04-18T19:00:45.930Z,66.85
2023-04-18T19:03:12.654Z,65.82
2023-04-18T19:05:39.121Z,67.15
2023-04-18T19:08:06.506Z,66.20
2023-04-18T19:10:32.984Z,66.30
2023-04-18T19:13:00.212Z,66.28
2023-04-18T19:15:26.749Z,67.21
2023-04-18T19:17:53.099Z,65.61
2023-04-18T19:20:19.601Z,65.71
2023-04-18T19:22:46.002Z,65.94
2023-04-18T19:25:12.411Z,65.57
2023-04-18T19:27:38.749Z,65.03
2023-04-18T19:30:05.854Z,65.38
2023-04-18T19:32:32.595Z,64.79
2023-04-18T19:34:59.907Z,65.45
2023-04-18T19:37:26.395Z,65.64
2023-04-18T19:39:52.972Z,65.79
2023-04-18T19:42:19.542Z,65.77
2023-04-18T19:44:45.925Z,65.84
2023-04-18T19:47:12.257Z,66.32
2023-04-18T19:49:38.762Z,66.59
2023-04-18T19:52:06.047Z,66.46
2023-04-18T19:54:35.731Z,66.48
2023-04-18T19:57:02.649Z,66.20
2023-04-18T19:59:28.975Z,67.01
2023-04-18T20:01:56.681Z,66.28
2023-04-18T20:04:25.587Z,66.64
2023-04-18T20:06:53.671Z,66.52
2023-04-18T20:09:20.063Z,67.55
2023-04-18T20:11:47.793Z,67.97
2023-04-18T20:14:14.172Z,66.57
2023-04-18T20:16:42.708Z,66.56
2023-04-18T20:19:12.441Z,66.84
2023-04-18T20:21:39.185Z,66.94
2023-04-18T20:24:06.702Z,66.88
2023-04-18T20:26:33.203Z,67.44
2023-04-18T20:28:59.605Z,67.39
2023-04-18T20:31:25.970Z,66.60
2023-04-18T20:33:52.279Z,68.52
2023-04-18T20:36:18.875Z,67.79
2023-04-18T20:38:45.293Z,66.91
2023-04-18T20:41:17.954Z,67.81
2023-04-18T20:43:45.936Z,67.87
2023-04-18T20:46:12.945Z,67.96
2023-04-18T20:48:40.197Z,68.29
2023-04-18T20:51:06.716Z,68.34
2023-04-18T20:53:33.192Z,68.46
2023-04-18T20:56:02.113Z,67.67
2023-04-18T20:58:29.607Z,67.92
2023-04-18T21:00:55.949Z,68.01
2023-04-18T21:03:22.948Z,68.58
2023-04-18T21:05:49.455Z,68.77
2023-04-18T21:08:15.871Z,68.04
2023-04-18T21:10:42.226Z,68.42
2023-04-18T21:13:09.269Z,68.09
2023-04-18T21:15:36.031Z,68.14
2023-04-18T21:18:02.469Z,68.76
2023-04-18T21:20:29.005Z,68.66
2023-04-18T21:22:55.593Z,68.54
2023-04-18T21:25:22.155Z,67.83
2023-04-18T21:27:50.403Z,68.46
2023-04-18T21:30:16.760Z,68.36
2023-04-18T21:32:43.110Z,68.34
2023-04-18T21:35:09.993Z,69.37
2023-04-18T21:37:36.381Z,68.89
2023-04-18T21:40:04.000Z,69.19
2023-04-18T21:42:30.395Z,69.36
2023-04-18T21:44:56.705Z,69.65
2023-04-18T21:47:23.109Z,69.24
2023-04-18T21:49:49.630Z,70.18
2023-04-18T21:52:15.970Z,69.71
2023-04-18T21:54:42.424Z,69.13
2023-04-18T21:57:08.792Z,69.98
2023-04-18T21:59:35.121Z,70.76
2023-04-18T22:02:01.551Z,70.85
2023-04-18T22:04:29.008Z,70.45
2023-04-18T22:06:55.920Z,70.32
2023-04-18T22:09:22.521Z,70.72
2023-04-18T22:11:51.084Z,71.73
2023-04-18T22:14:20.058Z,71.52
2023-04-18T22:16:46.444Z,71.21
2023-04-18T22:19:14.017Z,72.00
2023-04-18T22:21:40.528Z,71.79
2023-04-18T22:24:07.600Z,71.53
2023-04-18T22:26:34.051Z,71.52
2023-04-18T22:29:00.469Z,72.15
2023-04-18T22:31:27.174Z,72.54
2023-04-18T22:33:53.570Z,71.99
2023-04-18T22:36:19.984Z,72.78
2023-04-18T22:38:46.506Z,72.74
2023-04-18T22:41:12.996Z,74.00
2023-04-18T22:43:39.373Z,72.68
2023-04-18T22:46:05.935Z,73.22
2023-04-18T22:48:34.980Z,73.65
2023-04-18T22:51:01.906Z,73.25
2023-04-18T22:53:28.539Z,73.64
2023-04-18T22:55:54.931Z,73.62
2023-04-18T22:58:21.524Z,73.73
2023-04-18T23:00:47.847Z,73.49
2023-04-18T23:03:14.348Z,74.54
2023-04-18T23:05:41.364Z,73.95
2023-04-18T23:08:08.018Z,73.72
2023-04-18T23:10:34.501Z,74.27
2023-04-18T23:13:00.937Z,73.92
2023-04-18T23:15:27.411Z,74.29
2023-04-18T23:17:53.935Z,74.38
2023-04-18T23:20:21.260Z,74.13
2023-04-18T23:22:51.605Z,74.40
2023-04-18T23:25:19.379Z,75.14
2023-04-18T23:27:46.004Z,75.46
2023-04-18T23:30:12.633Z,75.68
2023-04-18T23:32:39.115Z,74.40
2023-04-18T23:35:06.420Z,74.94
2023-04-18T23:37:33.306Z,75.01
2023-04-18T23:40:00.515Z,75.20
2023-04-18T23:42:27.240Z,74.63
2023-04-18T23:44:54.505Z,74.50
2023-04-18T23:47:21.418Z,75.16
2023-04-18T23:49:47.907Z,75.97
2023-04-18T23:52:14.608Z,76.07
2023-04-18T23:54:41.098Z,75.61
2023-04-18T23:57:07.569Z,76.15
2023-04-18T23:59:33.905Z,75.94
